createdAt,value
2023-01-05T00:00:32.657Z,2.67
2023-01-05T00:05:34.816Z,3.47
2023-01-05T00:10:56.595Z,2.80
2023-01-05T00:16:18.825Z,3.05
2023-01-05T00:21:39.690Z,2.25
2023-01-05T00:26:41.871Z,2.22
2023-01-05T00:31:44.123Z,1.73
2023-01-05T00:36:46.206Z,1.88
2023-01-05T00:41:48.346Z,1.63
2023-01-05T00:46:50.497Z,2.05
2023-01-05T00:51:52.549Z,1.85
2023-01-05T00:56:54.668Z,1.65
2023-01-05T01:01:56.886Z,1.77
2023-01-05T01:06:59.569Z,1.55
2023-01-05T01:12:02.166Z,1.35
2023-01-05T01:17:04.541Z,1.13
2023-01-05T01:22:06.779Z,1.70
2023-01-05T01:27:08.919Z,1.10
2023-01-05T01:32:11.080Z,1.33
2023-01-05T01:37:13.594Z,0.93
2023-01-05T01:42:22.481Z,1.35
2023-01-05T01:47:28.522Z,2.75
2023-01-05T01:52:33.005Z,1.60
2023-01-05T01:57:36.682Z,3.45
2023-01-05T02:02:38.909Z,3.85
2023-01-05T02:07:46.056Z,4.63
2023-01-05T02:13:10.307Z,4.40
2023-01-05T02:18:46.423Z,3.35
2023-01-05T02:24:36.348Z,2.45
2023-01-05T02:29:50.830Z,2.58
2023-01-05T02:35:23.089Z,2.15
2023-01-05T02:40:32.266Z,2.00
2023-01-05T02:45:35.753Z,2.28
2023-01-05T02:50:52.461Z,2.30
2023-01-05T02:56:02.555Z,2.05
2023-01-05T03:01:17.711Z,2.38
2023-01-05T03:06:33.248Z,2.05
2023-01-05T03:12:25.767Z,2.72
2023-01-05T03:17:47.796Z,1.80
2023-01-05T03:23:11.446Z,2.70
2023-01-05T03:28:42.275Z,2.28
2023-01-05T03:34:16.227Z,2.30
2023-01-05T03:39:26.647Z,3.28
2023-01-05T03:44:29.978Z,2.65
2023-01-05T03:49:33.795Z,2.08
2023-01-05T03:54:36.494Z,2.88
2023-01-05T03:59:39.559Z,2.35
2023-01-05T04:04:41.750Z,3.33
2023-01-05T04:09:45.230Z,1.60
2023-01-05T04:14:48.574Z,2.80
2023-01-05T04:19:50.976Z,2.10
2023-01-05T04:24:54.787Z,2.45
2023-01-05T04:29:57.505Z,2.92
2023-01-05T04:35:03.890Z,4.72
2023-01-05T04:40:11.451Z,4.05
2023-01-05T04:45:25.516Z,2.92
2023-01-05T04:50:28.449Z,3.88
2023-01-05T04:55:31.945Z,6.13
2023-01-05T05:00:34.337Z,3.28
2023-01-05T05:05:41.043Z,4.20
2023-01-05T05:10:44.642Z,3.90
2023-01-05T05:15:47.576Z,4.57
2023-01-05T05:20:51.911Z,5.57
2023-01-05T05:25:56.213Z,4.05
2023-01-05T05:31:00.580Z,4.97
2023-01-05T05:36:02.763Z,4.78
2023-01-05T05:41:05.175Z,4.63
2023-01-05T05:46:07.509Z,3.80
2023-01-05T05:51:09.701Z,4.50
2023-01-05T05:56:11.793Z,4.45
2023-01-05T06:01:14.154Z,3.45
2023-01-05T06:06:16.304Z,5.10
2023-01-05T06:11:18.385Z,4.90
2023-01-05T06:16:20.805Z,4.50
2023-01-05T06:21:23.440Z,3.63
2023-01-05T06:26:25.564Z,4.32
2023-01-05T06:31:27.749Z,4.28
2023-01-05T06:36:29.914Z,6.03
2023-01-05T06:41:32.278Z,4.18
2023-01-05T06:46:34.397Z,4.60
2023-01-05T06:51:36.454Z,5.05
2023-01-05T06:56:38.760Z,3.33
2023-01-05T07:01:41.170Z,4.28
2023-01-05T07:06:43.427Z,4.18
2023-01-05T07:11:45.572Z,5.15
2023-01-05T07:16:47.914Z,4.05
2023-01-05T07:21:56.431Z,4.38
2023-01-05T07:27:04.372Z,5.07
2023-01-05T07:32:09.873Z,4.45
2023-01-05T07:37:12.065Z,3.58
2023-01-05T07:42:14.228Z,5.65
2023-01-05T07:47:17.014Z,4.50
2023-01-05T07:52:19.273Z,4.25
2023-01-05T07:57:21.383Z,3.15
2023-01-05T08:02:23.703Z,2.65
2023-01-05T08:07:25.887Z,2.58
2023-01-05T08:12:29.298Z,3.05
2023-01-05T08:17:31.450Z,5.30
2023-01-05T08:22:33.644Z,3.83
2023-01-05T08:27:35.921Z,3.10
2023-01-05T08:32:38.648Z,2.53
2023-01-05T08:37:40.853Z,3.83
2023-01-05T08:42:43.208Z,3.00
2023-01-05T08:47:45.530Z,2.83
2023-01-05T08:52:47.639Z,3.70
2023-01-05T08:57:50.284Z,2.05
2023-01-05T09:02:52.651Z,2.38
2023-01-05T09:07:54.833Z,2.28
2023-01-05T09:12:56.997Z,2.55
2023-01-05T09:17:59.387Z,3.88
2023-01-05T09:23:01.663Z,3.13
2023-01-05T09:28:03.847Z,2.75
2023-01-05T09:33:06.010Z,2.95
2023-01-05T09:38:08.122Z,3.70
2023-01-05T09:43:20.192Z,3.05
2023-01-05T09:48:23.713Z,2.05
2023-01-05T09:53:30.222Z,3.00
2023-01-05T09:58:40.851Z,1.80
2023-01-05T10:04:16.779Z,2.03
2023-01-05T10:09:22.434Z,3.22
2023-01-05T10:14:45.797Z,3.05
2023-01-05T10:19:49.026Z,3.17
2023-01-05T10:25:00.409Z,2.78
2023-01-05T10:30:17.535Z,4.20
2023-01-05T10:36:03.202Z,1.75
2023-01-05T10:41:29.824Z,2.17
2023-01-05T10:46:40.032Z,1.98
2023-01-05T10:51:47.116Z,4.10
2023-01-05T10:56:52.224Z,1.27
2023-01-05T11:01:54.542Z,2.28
2023-01-05T11:07:05.512Z,1.35
2023-01-05T11:12:21.030Z,2.55
2023-01-05T11:17:26.552Z,1.55
2023-01-05T11:22:28.750Z,1.10
2023-01-05T11:27:31.124Z,1.23
2023-01-05T11:32:34.124Z,1.55
2023-01-05T11:37:36.617Z,1.13
2023-01-05T11:42:43.577Z,0.60
2023-01-05T11:47:48.691Z,0.82
2023-01-05T11:53:02.518Z,1.08
2023-01-05T11:58:16.273Z,0.80
2023-01-05T12:03:36.974Z,1.90
2023-01-05T12:09:00.211Z,1.77
2023-01-05T12:14:24.767Z,0.80
2023-01-05T12:19:45.879Z,0.50
2023-01-05T12:24:50.821Z,0.55
2023-01-05T12:36:21.698Z,1.20
2023-01-05T12:41:42.773Z,0.90
2023-01-05T12:47:06.094Z,0.15
2023-01-05T12:52:25.448Z,0.35
2023-01-05T12:57:36.750Z,0.50
2023-01-05T13:02:55.724Z,0.80
2023-01-05T13:08:18.288Z,0.30
2023-01-05T13:13:27.569Z,0.50
2023-01-05T13:18:32.131Z,0.80
2023-01-05T13:23:51.855Z,0.70
2023-01-05T13:28:57.880Z,0.30
2023-01-05T13:34:20.845Z,0.20
2023-01-05T13:39:59.893Z,0.40
2023-01-05T13:45:34.538Z,0.20
2023-01-05T13:50:39.798Z,0.17
2023-01-05T13:55:58.960Z,0.60
2023-01-05T14:01:04.987Z,0.90
2023-01-05T14:06:26.430Z,1.00
2023-01-05T14:11:29.571Z,0.57
2023-01-05T14:16:41.372Z,0.35
2023-01-05T14:21:49.582Z,0.98
2023-01-05T14:27:07.735Z,0.68
2023-01-05T14:32:12.854Z,0.57
2023-01-05T14:37:45.880Z,0.40
2023-01-05T14:42:50.387Z,0.60
2023-01-05T14:47:58.890Z,1.00
2023-01-05T14:53:10.654Z,1.57
2023-01-05T14:58:15.792Z,1.35
2023-01-05T15:03:39.761Z,1.05
2023-01-05T15:09:09.870Z,1.00
2023-01-05T15:14:44.975Z,0.95
2023-01-05T15:19:52.778Z,0.52
2023-01-05T15:25:39.217Z,0.43
2023-01-05T15:31:07.779Z,0.60
2023-01-05T15:36:23.420Z,0.43
2023-01-05T15:41:27.656Z,0.40
2023-01-05T15:46:33.902Z,0.20
2023-01-05T15:51:40.686Z,0.40
2023-01-05T15:56:44.297Z,1.30
2023-01-05T16:01:46.495Z,0.60
2023-01-05T16:06:53.444Z,1.00
2023-01-05T16:12:09.323Z,1.23
2023-01-05T16:17:15.767Z,1.70
2023-01-05T16:22:42.632Z,1.40
2023-01-05T16:28:00.727Z,1.13
2023-01-05T16:33:19.470Z,0.75
2023-01-05T16:38:24.808Z,1.13
2023-01-05T16:43:36.473Z,1.33
2023-01-05T16:48:39.565Z,2.67
2023-01-05T16:53:57.972Z,2.10
2023-01-05T16:59:01.112Z,1.80
2023-01-05T17:04:18.111Z,2.08
2023-01-05T17:09:36.674Z,1.00
2023-01-05T17:14:43.088Z,2.42
2023-01-05T17:24:52.743Z,1.23
2023-01-05T17:34:57.550Z,0.88
2023-01-05T17:40:07.119Z,1.33
2023-01-05T17:45:16.678Z,0.70
2023-01-05T17:50:38.059Z,1.03
2023-01-05T17:55:48.604Z,1.10
2023-01-05T18:00:51.187Z,2.17
2023-01-05T18:05:54.039Z,0.77
2023-01-05T18:11:04.248Z,0.55
2023-01-05T18:16:12.519Z,0.82
2023-01-05T18:21:15.345Z,1.08
2023-01-05T18:26:17.582Z,0.90
2023-01-05T18:31:20.599Z,1.70
2023-01-05T18:36:26.052Z,1.45
2023-01-05T18:41:32.191Z,1.15
2023-01-05T18:46:45.013Z,2.63
2023-01-05T18:51:52.350Z,7.97
2023-01-05T18:57:00.571Z,2.35
2023-01-05T19:07:15.510Z,5.50
2023-01-05T19:12:21.522Z,3.28
2023-01-05T19:17:23.928Z,2.75
2023-01-05T19:22:32.577Z,3.75
2023-01-05T19:27:38.624Z,2.13
2023-01-05T19:32:48.541Z,2.22
2023-01-05T19:38:01.526Z,1.75
2023-01-05T19:43:05.223Z,1.45
2023-01-05T19:48:07.358Z,2.03
2023-01-05T19:53:13.817Z,1.40
2023-01-05T19:58:19.306Z,1.65
2023-01-05T20:03:22.525Z,0.98
2023-01-05T20:08:25.469Z,1.75
2023-01-05T20:13:28.013Z,1.92
2023-01-05T20:18:32.766Z,1.40
2023-01-05T20:23:39.740Z,1.38
2023-01-05T20:28:42.443Z,1.20
2023-01-05T20:33:44.814Z,1.25
2023-01-05T20:38:47.690Z,1.58
2023-01-05T20:44:15.979Z,1.77
2023-01-05T20:49:19.072Z,1.33
2023-01-05T20:54:21.649Z,2.22
2023-01-05T20:59:29.290Z,1.10
2023-01-05T21:04:36.280Z,2.10
2023-01-05T21:09:43.039Z,2.28
2023-01-05T21:14:45.495Z,1.85
2023-01-05T21:20:02.164Z,1.42
2023-01-05T21:25:06.991Z,2.22
2023-01-05T21:30:10.318Z,4.80
2023-01-05T21:35:14.896Z,2.00
2023-01-05T21:40:20.393Z,2.08
2023-01-05T21:45:36.326Z,1.73
2023-01-05T21:50:58.367Z,1.67
2023-01-05T21:56:19.989Z,1.80
2023-01-05T22:01:24.486Z,1.70
2023-01-05T22:06:27.255Z,3.08
2023-01-05T22:11:32.642Z,2.10
2023-01-05T22:16:35.637Z,2.28
2023-01-05T22:21:38.884Z,1.30
2023-01-05T22:26:41.225Z,1.33
2023-01-05T22:31:44.787Z,2.92
2023-01-05T22:36:50.796Z,2.13
2023-01-05T22:41:52.986Z,2.67
2023-01-05T22:46:56.646Z,4.28
2023-01-05T22:51:59.825Z,4.13
2023-01-05T22:57:02.180Z,5.00
2023-01-05T23:02:04.467Z,2.20
2023-01-05T23:07:07.863Z,3.15
2023-01-05T23:12:12.132Z,2.10
2023-01-05T23:17:15.648Z,3.63
2023-01-05T23:22:18.146Z,1.95
2023-01-05T23:27:22.932Z,1.92
2023-01-05T23:32:28.386Z,2.35
2023-01-05T23:37:31.991Z,2.08
2023-01-05T23:42:46.168Z,2.40
2023-01-05T23:47:50.829Z,3.47
2023-01-05T23:52:56.374Z,3.70
2023-01-05T23:57:59.774Z,2.13
